Nearby METAR Reports

 

KPDX - Portland, Oregon, USA
Distance from station: NE 9mi, 14km
Updated: Mon, 18-Nov-2019 10:53pm PST
Mostly cloudy
Mostly cloudy
 Wind from SW
Wind: SW 9 mph , 15 km/h
Temperature: 54°F , 12°C
Dew Point: 48°F , 9°C
Humidity: 82%
Barometer: 29.74 inHg , 1007.1 hPa
Clouds: Mostly cloudy
Visibility: 10 miles , 16 km
Cloud details: Partly cloudy 5500 ft
Mostly cloudy 9000 ft
Mostly cloudy 15000 ft
2019/11/19 06:53 KPDX 190653Z 22008KT 10SM SCT055 BKN090 BKN150 12/09 A2974 RMK AO2 RAB00E23 SLP070 P0001 T01220089
KTMK - Tillamook, Oregon, USA
Distance from station: N 9mi, 14km
Updated: Mon, 18-Nov-2019 11:15pm PST
Overcast
Overcast
 Wind from SW
Wind: SW 3 mph , 6 km/h
Temperature: 54°F , 12°C
Dew Point: 50°F , 10°C
Humidity: 88%
Barometer: 29.74 inHg , 1007.1 hPa
Clouds: Overcast
Visibility: 10 miles , 16 km
Cloud details: Partly cloudy 1800 ft
Mostly cloudy 2300 ft
Overcast 5500 ft
2019/11/19 07:15 KTMK 190715Z AUTO 23003KT 10SM SCT018 BKN023 OVC055 12/10 A2974 RMK AO2
 
KSLE - Salem, Oregon, USA
Distance from station: NNW 14mi, 23km
Updated: Mon, 18-Nov-2019 10:56pm PST
Light rain, Overcast
Light rain, Overcast
 Wind from S
Wind: S 13 mph , 20 km/h
Temperature: 52°F , 11°C
Dew Point: 46°F , 8°C
Humidity: 82%
Barometer: 29.76 inHg , 1007.8 hPa
Summary: Light rain
Clouds: Overcast
Visibility: 10 miles , 16 km
Cloud details: Mostly cloudy 6000 ft
Overcast 8000 ft
2019/11/19 06:56 KSLE 190656Z AUTO 18011KT 10SM -RA BKN060 OVC080 11/08 A2976 RMK AO2 RAB44 SLP077 P0000 T01060083
KEUG - Eugene, Oregon, USA
Distance from station: ENE 12mi, 19km
Updated: Mon, 18-Nov-2019 10:54pm PST
Light rain, Overcast
Light rain, Overcast
 Wind from SSE
Wind: SSE 6 mph , 9 km/h
Temperature: 52°F , 11°C
Dew Point: 48°F , 9°C
Humidity: 88%
Barometer: 29.81 inHg , 1009.5 hPa
Summary: Light rain
Clouds: Overcast
Visibility: 9 miles , 14 km
Cloud details: Few Clouds 3000 ft
Partly cloudy 4200 ft
Mostly cloudy 5500 ft
Overcast 22000 ft
2019/11/19 06:54 KEUG 190654Z 15005KT 9SM -RA FEW030 SCT042 BKN055 OVC220 11/09 A2981 RMK AO2 RAB32 SLP093 P0001 T01060089 $
 
KONP - Newport, Oregon, USA
Distance from station: NNW 31mi, 50km
Updated: Mon, 18-Nov-2019 11:15pm PST
Rain, Overcast
Rain, Overcast
 Wind from S
Wind: S 22 mph , 35 km/h, Gust: 30 mph , 48 km/h
Temperature: 54°F , 12°C
Dew Point: 52°F , 11°C
Humidity: 94%
Barometer: 29.77 inHg , 1008.1 hPa
Summary: Rain
Clouds: Overcast
Visibility: 5 miles , 8 km
Cloud details: Partly cloudy 1400 ft
Mostly cloudy 2600 ft
Overcast 4300 ft
2019/11/19 07:15 KONP 190715Z AUTO 19019G26KT 5SM RA SCT014 BKN026 OVC043 12/11 A2977 RMK AO2 P0001
K6S2 - Florence, Oregon, USA
Distance from station: NW 21mi, 34km
Updated: Wed, 18-Sep-2019 1:15am PDT
NOT Current
Heavy rain, Overcast
Heavy rain, Overcast
 Wind from S
Wind: S 14 mph , 22 km/h, Gust: 18 mph , 30 km/h
Temperature: 59°F , 15°C
Dew Point: 55°F , 13°C
Humidity: 88%
Barometer: 29.79 inHg , 1008.8 hPa
Summary: Heavy rain
Clouds: Overcast
Visibility: 7 miles , 11 km
Cloud details: Partly cloudy 1100 ft
Mostly cloudy 1900 ft
Overcast 4600 ft
2019/09/18 08:15 K6S2 180815Z AUTO 19012G16KT 7SM +RA SCT011 BKN019 OVC046 15/13 A2979 RMK AO2 P0005
 
KDLS - The Dalles, Oregon, USA
Distance from station: NW 30mi, 49km
Updated: Mon, 18-Nov-2019 10:53pm PST
Clear
Clear
 Wind from SSE
Wind: SSE 3 mph , 6 km/h
Temperature: 46°F , 8°C
Dew Point: 45°F , 7°C
Humidity: 93%
Barometer: 29.71 inHg , 1006.1 hPa
Clouds: Clear
Visibility: 10 miles , 16 km
2019/11/19 06:53 KDLS 190653Z AUTO 15003KT 10SM CLR 08/07 A2971 RMK AO2 SLP062 T00780067
KRDM - Redmond, Oregon, USA
Distance from station: ESE 27mi, 43km
Updated: Mon, 18-Nov-2019 10:56pm PST
Overcast
Overcast
 Wind from WNW
Wind: WNW 8 mph , 13 km/h
Temperature: 52°F , 11°C
Dew Point: 39°F , 4°C
Humidity: 62%
Barometer: 29.71 inHg , 1006.1 hPa
Clouds: Overcast
Visibility: 10 miles , 16 km
Cloud details: Mostly cloudy 3400 ft
Overcast 7000 ft
2019/11/19 06:56 KRDM 190656Z AUTO 30007KT 10SM BKN034 OVC070 11/04 A2971 RMK AO2 RAB14E30 SLP050 P0000 T01110044
 
KPDT - Pendleton, Oregon, USA
Distance from station: SSE 27mi, 44km
Updated: Mon, 18-Nov-2019 11:18pm PST
Mist, Overcast
Mist, Overcast
 Wind from S
Wind: S 5 mph , 7 km/h
Temperature: 46°F , 8°C
Wind Chill: 44°F , 7°C
Dew Point: 45°F , 7°C
Humidity: 93%
Barometer: 29.69 inHg , 1005.4 hPa
Summary: Mist
Clouds: Overcast
Visibility: 2 miles , 3 km
Cloud details: Overcast 200 ft
2019/11/19 07:18 KPDT 190718Z AUTO 17004KT 2SM BR OVC002 08/07 A2969 RMK AO2 T00780067
KGCD - John Day, Oregon, USA
Distance from station: WNW 31mi, 50km
Updated: Mon, 18-Nov-2019 11:15pm PST
Clear
Clear
 Wind from SSW
Wind: SSW 22 mph , 35 km/h, Gust: 35 mph , 56 km/h
Temperature: 59°F , 15°C
Dew Point: 37°F , 3°C
Humidity: 45%
Barometer: 29.68 inHg , 1005.1 hPa
Clouds: Clear
Visibility: 10 miles , 16 km
2019/11/19 07:15 KGCD 190715Z AUTO 20019G30KT 10SM CLR 15/03 A2968 RMK AO2 T01450034
 
KAST - Astoria, Oregon, USA
Distance from station: N 28mi, 44km
Updated: Mon, 18-Nov-2019 10:55pm PST
Light rain, Mostly cloudy
Light rain, Mostly cloudy
 Wind from SSW
Wind: SSW 12 mph , 19 km/h
Temperature: 54°F , 12°C
Dew Point: 52°F , 11°C
Humidity: 94%
Barometer: 29.69 inHg , 1005.4 hPa
Summary: Light rain
Clouds: Mostly cloudy
Visibility: 7 miles , 11 km
Cloud details: Few Clouds 3500 ft
Mostly cloudy 4800 ft
Mostly cloudy 6000 ft
2019/11/19 06:55 KAST 190655Z AUTO 20010KT 7SM -RA FEW035 BKN048 BKN060 12/11 A2969 RMK AO2 RAB22 SLP052 P0000 T01220106
KSEA - Seattle, Washington, USA
Distance from station: NNE 31mi, 51km
Updated: Mon, 18-Nov-2019 11:05pm PST
Mostly cloudy
Mostly cloudy
 Wind from SSE
Wind: SSE 9 mph , 15 km/h
Temperature: 52°F , 11°C
Dew Point: 48°F , 9°C
Humidity: 88%
Barometer: 29.68 inHg , 1005.1 hPa
Clouds: Mostly cloudy
Visibility: 10 miles , 16 km
Cloud details: Partly cloudy 600 ft
Mostly cloudy 3000 ft
Mostly cloudy 4200 ft
2019/11/19 07:05 KSEA 190705Z 16008KT 10SM SCT006 BKN030 BKN042 11/09 A2968 RMK AO2 T01060089